Mission Square, Washington
Current Conditions -  °F | °C
As of 3:09 AM on Friday 31 Oct 2014 (Local Time) from KEAT Reporting Station
Light Rain Light Rain  
Wind Chill: 50°   Ceiling: 600
Heat Index: 50°   Visibility: 0.5mi
Dew Point: 47°   Wind: 0mph
Humidity: 89%   Direction: NA
Pressure: 29.76"   Gusts: NA
Location:  47.3635°N, 120.348°W
Report Text: KEAT 311009Z AUTO 00000KT 1/2SM -RA FG BKN006 OVC023 10/08 A2976 RMK AO2 P0001 T01000083
Loading
Personal Weather Stations






























Interactive Weather Map
Tropical Storm Tracking
New forecast layout! Learn more

10-Day Weather Forecast

Advertisements
Track Severe Weather on mobile